createdAt,value
2023-02-01T00:01:18.655Z,21.95
2023-02-01T00:03:45.854Z,21.94
2023-02-01T00:06:13.165Z,21.93
2023-02-01T00:08:40.810Z,21.88
2023-02-01T00:11:09.318Z,21.87
2023-02-01T00:13:40.288Z,21.84
2023-02-01T00:16:09.477Z,21.82
2023-02-01T00:18:37.811Z,21.80
2023-02-01T00:21:05.094Z,21.77
2023-02-01T00:23:34.022Z,21.75
2023-02-01T00:26:04.216Z,21.73
2023-02-01T00:28:31.385Z,21.72
2023-02-01T00:30:59.910Z,21.72
2023-02-01T00:33:28.247Z,21.72
2023-02-01T00:35:58.803Z,21.69
2023-02-01T00:38:26.254Z,21.68
2023-02-01T00:40:53.485Z,21.66
2023-02-01T00:43:21.064Z,21.65
2023-02-01T00:45:48.443Z,21.63
2023-02-01T00:48:15.477Z,21.61
2023-02-01T00:50:43.374Z,21.59
2023-02-01T00:53:11.003Z,21.55
2023-02-01T00:55:38.775Z,21.53
2023-02-01T00:58:07.782Z,21.53
2023-02-01T01:00:35.837Z,21.51
2023-02-01T01:03:02.999Z,21.49
2023-02-01T01:05:30.071Z,21.45
2023-02-01T01:07:57.370Z,21.43
2023-02-01T01:10:24.724Z,21.43
2023-02-01T01:12:52.795Z,21.38
2023-02-01T01:15:20.256Z,21.37
2023-02-01T01:17:47.566Z,21.33
2023-02-01T01:20:15.957Z,21.34
2023-02-01T01:22:43.446Z,21.29
2023-02-01T01:25:10.548Z,21.27
2023-02-01T01:27:37.616Z,21.20
2023-02-01T01:30:04.908Z,21.22
2023-02-01T01:32:33.647Z,21.18
2023-02-01T01:35:00.921Z,21.16
2023-02-01T01:37:28.582Z,21.13
2023-02-01T01:39:57.541Z,21.10
2023-02-01T01:42:25.499Z,21.08
2023-02-01T01:44:58.964Z,21.07
2023-02-01T01:47:33.468Z,21.03
2023-02-01T01:50:01.129Z,21.03
2023-02-01T01:52:28.919Z,20.98
2023-02-01T01:54:56.015Z,20.92
2023-02-01T01:57:27.221Z,20.93
2023-02-01T01:59:59.821Z,20.91
2023-02-01T02:02:27.860Z,20.88
2023-02-01T02:04:56.134Z,20.87
2023-02-01T02:07:26.111Z,20.86
2023-02-01T02:10:00.542Z,20.80
2023-02-01T02:12:29.377Z,20.82
2023-02-01T02:14:57.644Z,20.77
2023-02-01T02:17:25.188Z,20.75
2023-02-01T02:19:56.520Z,20.73
2023-02-01T02:22:27.739Z,20.72
2023-02-01T02:24:59.981Z,20.71
2023-02-01T02:27:31.908Z,20.68
2023-02-01T02:30:04.410Z,20.67
2023-02-01T02:32:35.723Z,20.66
2023-02-01T02:35:10.329Z,20.66
2023-02-01T02:37:42.305Z,20.60
2023-02-01T02:40:14.906Z,20.57
2023-02-01T02:42:50.386Z,20.57
2023-02-01T02:45:24.969Z,20.58
2023-02-01T02:47:55.489Z,20.54
2023-02-01T02:50:28.731Z,20.54
2023-02-01T02:53:03.886Z,20.48
2023-02-01T02:55:33.085Z,20.48
2023-02-01T02:58:03.609Z,20.48
2023-02-01T03:00:36.706Z,20.47
2023-02-01T03:03:07.897Z,20.43
2023-02-01T03:05:38.050Z,20.40
2023-02-01T03:08:11.371Z,20.37
2023-02-01T03:10:42.842Z,20.37
2023-02-01T03:13:14.768Z,20.32
2023-02-01T03:15:45.075Z,20.28
2023-02-01T03:18:15.616Z,20.28
2023-02-01T03:20:44.394Z,20.26
2023-02-01T03:23:12.993Z,20.27
2023-02-01T03:25:41.075Z,20.22
2023-02-01T03:28:10.602Z,20.20
2023-02-01T03:30:39.073Z,20.18
2023-02-01T03:33:15.223Z,20.15
2023-02-01T03:35:43.867Z,20.08
2023-02-01T03:38:14.536Z,20.10
2023-02-01T03:40:43.291Z,20.06
2023-02-01T03:43:14.211Z,20.05
2023-02-01T03:45:45.535Z,20.04
2023-02-01T03:48:15.296Z,20.03
2023-02-01T03:50:46.835Z,20.05
2023-02-01T03:53:18.120Z,19.99
2023-02-01T03:55:45.910Z,19.94
2023-02-01T03:58:14.193Z,19.94
2023-02-01T04:00:42.282Z,19.92
2023-02-01T04:03:09.356Z,19.90
2023-02-01T04:05:36.902Z,19.89
2023-02-01T04:08:03.961Z,19.89
2023-02-01T04:10:31.627Z,19.86
2023-02-01T04:12:59.837Z,19.84
2023-02-01T04:15:27.533Z,19.81
2023-02-01T04:17:54.545Z,19.81
2023-02-01T04:20:21.945Z,19.78
2023-02-01T04:22:49.329Z,19.77
2023-02-01T04:25:19.106Z,19.76
2023-02-01T04:27:46.635Z,19.75
2023-02-01T04:30:14.427Z,19.70
2023-02-01T04:32:42.180Z,19.70
2023-02-01T04:35:09.791Z,19.68
2023-02-01T04:37:36.786Z,19.68
2023-02-01T04:40:05.204Z,19.67
2023-02-01T04:42:32.554Z,19.65
2023-02-01T04:44:59.732Z,19.63
2023-02-01T04:47:27.677Z,19.61
2023-02-01T04:49:55.505Z,19.59
2023-02-01T04:52:22.751Z,19.60
2023-02-01T04:54:49.765Z,19.56
2023-02-01T04:57:17.293Z,19.54
2023-02-01T04:59:44.365Z,19.52
2023-02-01T05:02:11.905Z,19.52
2023-02-01T05:04:39.336Z,19.54
2023-02-01T05:07:06.472Z,19.53
2023-02-01T05:09:33.712Z,19.53
2023-02-01T05:12:03.890Z,19.50
2023-02-01T05:14:32.445Z,19.49
2023-02-01T05:16:59.822Z,19.48
2023-02-01T05:19:27.051Z,19.47
2023-02-01T05:21:54.319Z,19.48
2023-02-01T05:24:22.021Z,19.51
2023-02-01T05:26:50.114Z,19.52
2023-02-01T05:29:18.526Z,19.56
2023-02-01T05:31:47.449Z,19.60
2023-02-01T05:34:14.836Z,19.70
2023-02-01T05:36:42.531Z,19.73
2023-02-01T05:39:09.734Z,19.79
2023-02-01T05:41:37.727Z,19.85
2023-02-01T05:44:04.885Z,19.90
2023-02-01T05:46:31.975Z,19.95
2023-02-01T05:48:59.254Z,20.00
2023-02-01T05:51:26.585Z,20.06
2023-02-01T05:53:53.888Z,20.10
2023-02-01T05:56:20.856Z,20.16
2023-02-01T05:58:48.588Z,20.20
2023-02-01T06:01:16.202Z,20.25
2023-02-01T06:03:43.552Z,20.31
2023-02-01T06:06:11.169Z,20.36
2023-02-01T06:08:38.187Z,20.41
2023-02-01T06:11:06.866Z,20.46
2023-02-01T06:13:34.918Z,20.50
2023-02-01T06:16:03.775Z,20.55
2023-02-01T06:18:33.030Z,20.61
2023-02-01T06:21:01.932Z,20.65
2023-02-01T06:23:31.146Z,20.70
2023-02-01T06:26:01.124Z,20.74
2023-02-01T06:28:29.207Z,20.79
2023-02-01T06:30:56.831Z,20.83
2023-02-01T06:33:23.932Z,20.86
2023-02-01T06:35:57.506Z,20.91
2023-02-01T06:38:25.125Z,20.92
2023-02-01T06:40:55.965Z,20.95
2023-02-01T06:43:24.209Z,21.00
2023-02-01T06:45:52.620Z,21.02
2023-02-01T06:48:20.678Z,21.03
2023-02-01T06:50:48.304Z,21.06
2023-02-01T06:53:15.511Z,21.06
2023-02-01T06:55:59.718Z,21.08
2023-02-01T06:58:35.610Z,21.08
2023-02-01T07:01:06.704Z,21.09
2023-02-01T07:03:43.871Z,21.10
2023-02-01T07:06:13.915Z,21.09
2023-02-01T07:08:46.535Z,21.10
2023-02-01T07:11:19.040Z,21.08
2023-02-01T07:13:47.517Z,21.10
2023-02-01T07:16:21.179Z,21.06
2023-02-01T07:18:53.716Z,21.05
2023-02-01T07:21:25.371Z,21.06
2023-02-01T07:23:54.264Z,21.06
2023-02-01T07:26:21.824Z,21.04
2023-02-01T07:28:53.896Z,21.04
2023-02-01T07:31:24.829Z,21.08
2023-02-01T07:33:56.218Z,21.12
2023-02-01T07:36:23.569Z,21.15
2023-02-01T07:38:50.473Z,21.18
2023-02-01T07:41:17.572Z,21.20
2023-02-01T07:43:44.606Z,21.22
2023-02-01T07:46:12.005Z,21.25
2023-02-01T07:48:39.421Z,21.28
2023-02-01T07:51:06.980Z,21.31
2023-02-01T07:53:34.795Z,21.25
2023-02-01T07:56:02.573Z,20.54
2023-02-01T07:58:30.450Z,20.77
2023-02-01T08:01:03.057Z,20.84
2023-02-01T08:03:30.207Z,20.89
2023-02-01T08:05:57.641Z,20.89
2023-02-01T08:08:24.958Z,20.90
2023-02-01T08:10:53.069Z,20.89
2023-02-01T08:13:20.287Z,20.88
2023-02-01T08:15:47.202Z,20.86
2023-02-01T08:18:17.646Z,20.85
2023-02-01T08:20:46.793Z,20.83
2023-02-01T08:23:14.090Z,20.82
2023-02-01T08:25:41.196Z,20.81
2023-02-01T08:28:08.962Z,20.78
2023-02-01T08:30:39.036Z,20.83
2023-02-01T08:33:08.000Z,20.85
2023-02-01T08:35:43.141Z,20.86
2023-02-01T08:38:11.539Z,20.86
2023-02-01T08:40:38.503Z,20.77
2023-02-01T08:43:05.924Z,20.75
2023-02-01T08:45:33.580Z,20.72
2023-02-01T08:48:00.658Z,20.72
2023-02-01T08:50:27.744Z,20.70
2023-02-01T08:52:55.122Z,20.68
2023-02-01T08:55:22.206Z,20.68
2023-02-01T08:57:49.150Z,20.69
2023-02-01T09:00:18.105Z,20.65
2023-02-01T09:02:45.477Z,20.63
2023-02-01T09:05:13.028Z,20.57
2023-02-01T09:07:40.002Z,20.52
2023-02-01T09:10:07.506Z,20.52
2023-02-01T09:12:36.018Z,20.50
2023-02-01T09:15:03.436Z,20.48
2023-02-01T09:17:31.420Z,20.47
2023-02-01T09:19:58.374Z,20.45
2023-02-01T09:22:25.678Z,20.36
2023-02-01T09:24:55.117Z,20.31
2023-02-01T09:27:22.461Z,20.27
2023-02-01T09:29:54.543Z,20.30
2023-02-01T09:32:22.436Z,20.25
2023-02-01T09:34:50.045Z,20.26
2023-02-01T09:37:17.083Z,20.19
2023-02-01T09:39:44.291Z,20.14
2023-02-01T09:42:14.389Z,20.10
2023-02-01T09:44:49.764Z,20.06
2023-02-01T09:47:18.593Z,20.01
2023-02-01T09:49:50.074Z,20.00
2023-02-01T09:52:17.691Z,19.92
2023-02-01T09:54:48.223Z,19.91
2023-02-01T09:57:18.935Z,19.85
2023-02-01T09:59:48.106Z,19.82
2023-02-01T10:02:18.196Z,19.80
2023-02-01T10:04:45.480Z,19.79
2023-02-01T10:07:18.396Z,19.80
2023-02-01T10:09:49.304Z,19.75
2023-02-01T10:12:19.263Z,19.74
2023-02-01T10:14:53.039Z,19.68
2023-02-01T10:17:25.650Z,19.67
2023-02-01T10:19:55.791Z,19.68
2023-02-01T10:22:41.049Z,19.67
2023-02-01T10:25:15.779Z,19.63
2023-02-01T10:27:42.968Z,19.64
2023-02-01T10:30:17.673Z,19.61
2023-02-01T10:32:44.678Z,19.59
2023-02-01T10:35:14.733Z,19.57
2023-02-01T10:37:42.971Z,19.54
2023-02-01T10:40:18.279Z,19.53
2023-02-01T10:42:46.279Z,19.54
2023-02-01T10:45:16.342Z,19.49
2023-02-01T10:47:43.936Z,19.48
2023-02-01T10:50:17.517Z,19.47
2023-02-01T10:52:46.121Z,19.45
2023-02-01T10:55:27.766Z,19.44
2023-02-01T10:57:57.898Z,19.42
2023-02-01T11:00:25.938Z,19.39
2023-02-01T11:02:53.678Z,19.36
2023-02-01T11:05:21.104Z,19.36
2023-02-01T11:07:49.895Z,19.33
2023-02-01T11:10:19.935Z,19.33
2023-02-01T11:12:54.377Z,19.33
2023-02-01T11:15:23.051Z,19.29
2023-02-01T11:17:54.356Z,19.27
2023-02-01T11:20:25.535Z,19.26
2023-02-01T11:22:55.751Z,19.23
2023-02-01T11:25:23.910Z,19.22
2023-02-01T11:27:55.235Z,19.22
2023-02-01T11:30:25.821Z,19.22
2023-02-01T11:32:52.827Z,19.23
2023-02-01T11:35:21.946Z,19.20
2023-02-01T11:37:53.958Z,19.20
2023-02-01T11:40:22.445Z,19.19
2023-02-01T11:42:53.215Z,19.20
2023-02-01T11:45:23.376Z,19.16
2023-02-01T11:47:53.659Z,19.16
2023-02-01T11:50:27.546Z,19.13
2023-02-01T11:53:02.270Z,19.10
2023-02-01T11:55:30.050Z,19.06
2023-02-01T11:58:00.116Z,19.07
2023-02-01T12:00:27.512Z,19.06
2023-02-01T12:03:02.982Z,19.02
2023-02-01T12:05:33.997Z,19.01
2023-02-01T12:08:04.507Z,18.98
2023-02-01T12:10:31.878Z,18.99
2023-02-01T12:13:02.156Z,18.98
2023-02-01T12:15:36.998Z,18.95
2023-02-01T12:18:07.038Z,18.97
2023-02-01T12:20:37.115Z,18.95
2023-02-01T12:23:07.170Z,18.95
2023-02-01T12:25:37.680Z,18.92
2023-02-01T12:28:06.580Z,18.89
2023-02-01T12:30:34.029Z,18.90
2023-02-01T12:33:04.126Z,18.89
2023-02-01T12:35:31.726Z,18.86
2023-02-01T12:38:08.554Z,18.84
2023-02-01T12:40:38.848Z,18.80
2023-02-01T12:43:06.732Z,18.82
2023-02-01T12:45:38.161Z,18.82
2023-02-01T12:48:17.208Z,18.83
2023-02-01T12:50:49.711Z,18.80
2023-02-01T12:53:22.016Z,18.81
2023-02-01T12:55:51.847Z,18.81
2023-02-01T12:58:22.875Z,18.82
2023-02-01T13:00:54.531Z,18.81
2023-02-01T13:03:22.850Z,18.77
2023-02-01T13:05:53.046Z,18.78
2023-02-01T13:08:24.826Z,18.80
2023-02-01T13:11:00.151Z,18.84
2023-02-01T13:13:34.819Z,18.91
2023-02-01T13:16:03.161Z,18.96
2023-02-01T13:18:35.461Z,19.06
2023-02-01T13:21:05.702Z,19.13
2023-02-01T13:23:37.748Z,19.17
2023-02-01T13:26:06.112Z,19.22
2023-02-01T13:28:42.583Z,19.26
2023-02-01T13:31:11.130Z,19.30
2023-02-01T13:33:53.932Z,19.35
2023-02-01T13:36:29.303Z,19.40
2023-02-01T13:39:00.746Z,19.44
2023-02-01T13:41:31.514Z,19.50
2023-02-01T13:44:01.723Z,19.54
2023-02-01T13:46:29.557Z,19.58
2023-02-01T13:48:59.200Z,19.63
2023-02-01T13:51:29.221Z,19.68
2023-02-01T13:53:56.314Z,19.72
2023-02-01T13:56:25.391Z,19.76
2023-02-01T13:58:53.779Z,19.80
2023-02-01T14:01:24.042Z,19.84
2023-02-01T14:03:54.147Z,19.89
2023-02-01T14:06:24.284Z,19.94
2023-02-01T14:09:14.508Z,19.98
2023-02-01T14:11:48.200Z,20.04
2023-02-01T14:14:16.051Z,20.08
2023-02-01T14:16:43.844Z,20.12
2023-02-01T14:19:20.786Z,20.16
2023-02-01T14:21:49.881Z,20.20
2023-02-01T14:24:25.579Z,20.26
2023-02-01T14:26:54.411Z,20.30
2023-02-01T14:29:24.839Z,20.34
2023-02-01T14:31:53.339Z,20.37
2023-02-01T14:34:23.262Z,20.41
2023-02-01T14:36:52.664Z,20.44
2023-02-01T14:39:22.840Z,20.48
2023-02-01T14:41:54.244Z,20.51
2023-02-01T14:44:29.386Z,20.55
2023-02-01T14:46:59.345Z,20.58
2023-02-01T14:49:30.246Z,20.63
2023-02-01T14:51:59.099Z,20.65
2023-02-01T14:54:27.339Z,20.69
2023-02-01T14:56:55.770Z,20.72
2023-02-01T14:59:25.304Z,20.76
2023-02-01T15:01:55.641Z,20.78
2023-02-01T15:04:23.823Z,20.81
2023-02-01T15:06:55.472Z,20.84
2023-02-01T15:09:25.764Z,20.85
2023-02-01T15:11:55.918Z,20.89
2023-02-01T15:14:23.019Z,20.89
2023-02-01T15:16:55.009Z,20.90
2023-02-01T15:19:23.945Z,20.91
2023-02-01T15:21:53.097Z,20.90
2023-02-01T15:24:21.777Z,20.92
2023-02-01T15:26:48.881Z,20.96
2023-02-01T15:29:16.192Z,20.97
2023-02-01T15:31:46.894Z,20.99
2023-02-01T15:34:14.399Z,21.00
2023-02-01T15:36:47.861Z,21.03
2023-02-01T15:39:24.721Z,21.04
2023-02-01T15:41:54.313Z,21.04
2023-02-01T15:44:21.718Z,21.07
2023-02-01T15:46:50.428Z,21.09
2023-02-01T15:49:18.802Z,21.11
2023-02-01T15:51:47.574Z,21.10
2023-02-01T15:54:20.982Z,21.12
2023-02-01T15:56:54.011Z,21.11
2023-02-01T15:59:23.001Z,21.14
2023-02-01T16:01:50.319Z,21.14
2023-02-01T16:04:19.379Z,21.14
2023-02-01T16:06:49.467Z,21.15
2023-02-01T16:09:17.579Z,21.13
2023-02-01T16:11:47.788Z,21.13
2023-02-01T16:14:15.067Z,21.13
2023-02-01T16:16:42.258Z,21.11
2023-02-01T16:19:09.187Z,21.10
2023-02-01T16:21:36.404Z,21.09
2023-02-01T16:24:06.995Z,21.11
2023-02-01T16:26:35.412Z,21.09
2023-02-01T16:29:07.452Z,21.11
2023-02-01T16:31:37.213Z,21.11
2023-02-01T16:34:04.423Z,21.11
2023-02-01T16:36:32.490Z,21.12
2023-02-01T16:38:59.759Z,21.14
2023-02-01T16:41:29.546Z,21.17
2023-02-01T16:43:57.405Z,21.20
2023-02-01T16:46:27.421Z,21.21
2023-02-01T16:48:56.905Z,21.26
2023-02-01T16:51:25.757Z,21.27
2023-02-01T16:53:54.996Z,21.29
2023-02-01T16:56:23.016Z,21.30
2023-02-01T16:58:50.204Z,21.32
2023-02-01T17:01:18.352Z,21.33
2023-02-01T17:03:46.875Z,21.35
2023-02-01T17:06:16.743Z,21.36
2023-02-01T17:08:45.756Z,21.36
2023-02-01T17:11:15.144Z,21.39
2023-02-01T17:13:42.508Z,21.40
2023-02-01T17:16:12.573Z,21.38
2023-02-01T17:18:40.157Z,21.41
2023-02-01T17:21:07.977Z,21.41
2023-02-01T17:26:53.277Z,21.41
2023-02-01T17:29:20.573Z,21.41
2023-02-01T17:31:49.275Z,21.41
2023-02-01T17:34:17.622Z,21.39
2023-02-01T17:36:45.265Z,21.38
2023-02-01T17:39:32.269Z,21.40
2023-02-01T17:41:59.861Z,21.39
2023-02-01T17:44:27.730Z,21.36
2023-02-01T17:46:56.135Z,21.35
2023-02-01T17:49:23.258Z,21.33
2023-02-01T17:51:51.379Z,21.33
2023-02-01T17:54:20.329Z,21.30
2023-02-01T17:56:48.821Z,21.29
2023-02-01T17:59:16.302Z,21.27
2023-02-01T18:01:43.739Z,21.25
2023-02-01T18:04:13.071Z,21.24
2023-02-01T18:06:40.137Z,21.25
2023-02-01T18:09:08.074Z,21.22
2023-02-01T18:11:35.250Z,21.23
2023-02-01T18:14:02.450Z,21.27
2023-02-01T18:16:30.880Z,21.22
2023-02-01T18:19:02.064Z,21.24
2023-02-01T18:21:33.066Z,21.27
2023-02-01T18:24:01.205Z,21.28
2023-02-01T18:26:44.777Z,21.29
2023-02-01T18:29:11.796Z,21.28
2023-02-01T18:31:44.741Z,21.30
2023-02-01T18:34:17.536Z,21.29
2023-02-01T18:36:44.593Z,21.28
2023-02-01T18:39:12.032Z,21.29
2023-02-01T18:41:41.169Z,21.28
2023-02-01T18:44:14.359Z,21.29
2023-02-01T18:46:41.657Z,21.28
2023-02-01T18:49:08.996Z,21.29
2023-02-01T18:51:36.014Z,21.29
2023-02-01T18:54:02.954Z,21.26
2023-02-01T18:56:29.947Z,21.28
2023-02-01T18:58:58.321Z,21.27
2023-02-01T19:01:25.627Z,21.27
2023-02-01T19:04:10.241Z,21.24
2023-02-01T19:06:39.597Z,21.22
2023-02-01T19:09:06.991Z,21.19
2023-02-01T19:11:34.084Z,21.16
2023-02-01T19:14:01.132Z,21.16
2023-02-01T19:16:28.420Z,21.13
2023-02-01T19:18:55.848Z,21.13
2023-02-01T19:21:23.409Z,21.18
2023-02-01T19:23:50.442Z,21.22
2023-02-01T19:26:18.626Z,21.22
2023-02-01T19:28:48.206Z,21.24
2023-02-01T19:31:16.820Z,21.24
2023-02-01T19:33:43.957Z,21.27
2023-02-01T19:36:11.561Z,21.29
2023-02-01T19:38:39.021Z,21.31
2023-02-01T19:41:06.797Z,21.34
2023-02-01T19:43:33.861Z,21.37
2023-02-01T19:46:03.234Z,21.37
2023-02-01T19:48:31.538Z,21.40
2023-02-01T19:50:59.675Z,21.41
2023-02-01T19:53:28.293Z,21.41
2023-02-01T19:55:57.064Z,21.42
2023-02-01T19:58:25.337Z,21.44
2023-02-01T20:00:55.220Z,21.45
2023-02-01T20:03:22.741Z,21.46
2023-02-01T20:05:52.190Z,21.47
2023-02-01T20:08:19.611Z,21.46
2023-02-01T20:10:47.117Z,21.47
2023-02-01T20:13:14.802Z,21.48
2023-02-01T20:15:43.302Z,21.47
2023-02-01T20:18:10.783Z,21.48
2023-02-01T20:20:38.035Z,21.45
2023-02-01T20:23:06.744Z,21.45
2023-02-01T20:25:34.829Z,21.44
2023-02-01T20:28:02.153Z,21.43
2023-02-01T20:30:30.088Z,21.43
2023-02-01T20:32:57.269Z,21.39
2023-02-01T20:35:25.047Z,21.37
2023-02-01T20:37:53.287Z,21.37
2023-02-01T20:40:21.140Z,21.36
2023-02-01T20:42:49.011Z,21.34
2023-02-01T20:45:17.133Z,21.30
2023-02-01T20:47:44.502Z,21.30
2023-02-01T20:50:13.854Z,21.26
2023-02-01T20:52:41.896Z,21.25
2023-02-01T20:55:10.340Z,21.21
2023-02-01T20:57:37.947Z,21.21
2023-02-01T21:00:08.329Z,21.19
2023-02-01T21:02:35.594Z,21.18
2023-02-01T21:05:02.539Z,21.15
2023-02-01T21:07:30.045Z,21.12
2023-02-01T21:09:58.104Z,21.12
2023-02-01T21:12:25.892Z,21.07
2023-02-01T21:14:53.200Z,21.05
2023-02-01T21:17:20.924Z,21.04
2023-02-01T21:19:48.402Z,21.00
2023-02-01T21:22:15.761Z,20.97
2023-02-01T21:24:44.276Z,20.98
2023-02-01T21:27:11.836Z,20.98
2023-02-01T21:29:39.120Z,20.95
2023-02-01T21:32:07.511Z,20.92
2023-02-01T21:34:35.024Z,20.97
2023-02-01T21:37:02.218Z,20.95
2023-02-01T21:39:29.530Z,20.91
2023-02-01T21:41:59.910Z,20.87
2023-02-01T21:44:26.945Z,20.86
2023-02-01T21:46:55.926Z,20.87
2023-02-01T21:49:25.527Z,20.86
2023-02-01T21:51:52.870Z,20.86
2023-02-01T21:54:20.019Z,20.88
2023-02-01T21:56:48.264Z,20.90
2023-02-01T21:59:15.221Z,20.94
2023-02-01T22:01:42.539Z,21.00
2023-02-01T22:04:10.740Z,21.02
2023-02-01T22:06:38.166Z,21.06
2023-02-01T22:09:05.828Z,21.10
2023-02-01T22:11:33.359Z,21.11
2023-02-01T22:14:00.340Z,21.16
2023-02-01T22:16:27.514Z,21.22
2023-02-01T22:18:54.895Z,21.28
2023-02-01T22:21:24.227Z,21.31
2023-02-01T22:23:52.967Z,21.34
2023-02-01T22:26:20.463Z,21.40
2023-02-01T22:28:48.209Z,21.43
2023-02-01T22:31:15.412Z,21.47
2023-02-01T22:33:42.414Z,21.51
2023-02-01T22:36:10.386Z,21.54
2023-02-01T22:38:37.597Z,21.59
2023-02-01T22:41:05.846Z,21.60
2023-02-01T22:43:33.455Z,21.65
2023-02-01T22:46:04.304Z,21.67
2023-02-01T22:48:32.011Z,21.70
2023-02-01T22:50:59.501Z,21.73
2023-02-01T22:53:26.427Z,21.73
2023-02-01T22:55:53.347Z,21.74
2023-02-01T22:58:20.604Z,21.77
2023-02-01T23:00:47.551Z,21.78
2023-02-01T23:03:14.535Z,21.79
2023-02-01T23:05:41.434Z,21.81
2023-02-01T23:08:08.275Z,21.79
2023-02-01T23:10:35.159Z,21.80
2023-02-01T23:13:02.110Z,21.80
2023-02-01T23:15:29.087Z,21.80
2023-02-01T23:17:56.091Z,21.79
2023-02-01T23:20:23.184Z,21.79
2023-02-01T23:22:50.191Z,21.80
2023-02-01T23:25:19.020Z,21.80
2023-02-01T23:27:48.056Z,21.84
2023-02-01T23:30:16.673Z,21.89
2023-02-01T23:32:43.780Z,21.92
2023-02-01T23:35:10.647Z,21.96
2023-02-01T23:37:37.610Z,21.97
2023-02-01T23:40:05.316Z,22.00
2023-02-01T23:42:33.121Z,22.02
2023-02-01T23:44:59.973Z,22.05
2023-02-01T23:47:27.023Z,22.07
2023-02-01T23:49:54.199Z,22.09
2023-02-01T23:52:21.117Z,22.11
2023-02-01T23:54:48.118Z,22.13
2023-02-01T23:57:14.982Z,22.14
2023-02-01T23:59:41.859Z,22.15
